Cusseta, GA (31805)

5:46 PM EST on February 11, 2016 (GMT -0500)
Lawson Army Air Field | | Change Station
CLOSE
Current Station
Airport
Location: Fort Benning,
Elevation: 233 ft
Nearby Weather Stations

Elev 233 ft 32.32 °N, 84.98 °W | Updated 48 minutes ago

Clear
Clear
68 °F
Feels Like 68 °F
N
7
Wind Variable Wind from WNW

Today
High -- | Low -- °F
--% Chance of Precip.
Yesterday
High -- | Low -- °F
Precip. -- in
Pressure 30.09 in
Visibility 10.0 miles
Clouds Clear
Dew Point 40 °F
Humidity 37%
Rainfall 0.00 in
Snow Depth Not available.
7:25 AM 6:21 PM
Waxing Crescent, 15% visible
METAR KLSF 112158Z AUTO 29006KT 10SM CLR 20/05 A3008 RMK AO2 SLP190 T02000047
Pressure 30.09 in
Visibility 10.0 miles
Clouds Clear
Dew Point 40 °F
Humidity 37%
Rainfall 0.00 in
Snow Depth Not available.
7:25 AM 6:21 PM
Waxing Crescent, 15% visible
METAR KLSF 112158Z AUTO 29006KT 10SM CLR 20/05 A3008 RMK AO2 SLP190 T02000047

10-Day Weather Forecast

Almanac

Astronomy

Feb. 11, 2016 Rise Set
Actual Time
Civil Twilight
Nautical Twilight
Astronomical Twilight
Moon
Length of Visible Light
Length of Day
Tomorrow will be .
, % of the Moon is Illuminated

Today's Extremes

State Highs State Lows

Community

WunderPhotos

Upload Photos

1,892,173 photos uploaded!

WunderBlog® & News

Nearby

Air Quality

  Air Quality AQ Index Pollutant
Not available.

Snow Depth

Station Depth Elevation

Earthquake Activity

City Distance Mag. Time & Date
Minimum magnitude displayed is 2.5.

Coastal Water Temperatures

Place Temperature

Stations

Nearby Weather Stations

Station Location Temp. Windchill Dew Point Humidity Wind Precip. Elev Updated Type
                   

Watches & Warnings

There are currently no watches in effect.